createdAt,value
2018-06-02T00:00:42.341Z,4.10
2018-06-02T00:03:09.996Z,4.30
2018-06-02T00:05:37.567Z,3.63
2018-06-02T00:08:05.135Z,4.20
2018-06-02T00:10:32.741Z,4.30
2018-06-02T00:13:00.426Z,4.27
2018-06-02T00:15:28.057Z,3.97
2018-06-02T00:17:56.421Z,4.10
2018-06-02T00:20:24.797Z,3.80
2018-06-02T00:22:53.431Z,3.97
2018-06-02T00:25:21.031Z,4.40
2018-06-02T00:27:48.629Z,4.07
2018-06-02T00:30:16.273Z,3.97
2018-06-02T00:32:44.677Z,4.10
2018-06-02T00:35:12.256Z,4.43
2018-06-02T00:37:39.891Z,4.60
2018-06-02T00:40:07.489Z,4.40
2018-06-02T00:42:35.094Z,4.40
2018-06-02T00:45:03.497Z,4.47
2018-06-02T00:47:31.092Z,5.00
2018-06-02T00:49:58.700Z,4.83
2018-06-02T00:52:26.253Z,4.90
2018-06-02T00:55:06.453Z,4.63
2018-06-02T00:57:34.055Z,4.70
2018-06-02T01:00:01.661Z,4.63
2018-06-02T01:02:29.267Z,5.03
2018-06-02T01:04:56.997Z,4.77
2018-06-02T01:07:24.575Z,5.10
2018-06-02T01:09:52.221Z,5.37
2018-06-02T01:12:19.825Z,4.90
2018-06-02T01:14:47.431Z,5.10
2018-06-02T01:17:15.051Z,5.13
2018-06-02T01:19:43.419Z,5.17
2018-06-02T01:22:10.999Z,5.13
2018-06-02T01:24:39.358Z,5.03
2018-06-02T01:27:06.964Z,5.43
2018-06-02T01:29:34.567Z,5.53
2018-06-02T01:32:02.208Z,5.27
2018-06-02T01:34:29.847Z,5.70
2018-06-02T01:36:57.445Z,5.27
2018-06-02T01:39:24.983Z,5.47
2018-06-02T01:41:52.614Z,5.83
2018-06-02T01:44:20.184Z,6.07
2018-06-02T01:46:47.824Z,6.00
2018-06-02T01:49:16.199Z,5.73
2018-06-02T01:51:44.549Z,5.73
2018-06-02T01:54:12.195Z,5.30
2018-06-02T01:56:39.818Z,5.43
2018-06-02T01:59:07.427Z,5.97
2018-06-02T02:01:35.114Z,5.73
2018-06-02T02:04:03.490Z,5.83
2018-06-02T02:06:31.886Z,5.90
2018-06-02T02:09:00.275Z,6.00
2018-06-02T02:11:27.913Z,5.73
2018-06-02T02:13:55.536Z,6.30
2018-06-02T02:16:23.165Z,5.60
2018-06-02T02:18:50.785Z,6.10
2018-06-02T02:21:18.401Z,6.17
2018-06-02T02:23:46.014Z,5.77
2018-06-02T02:26:13.627Z,5.17
2018-06-02T02:28:41.231Z,5.90
2018-06-02T02:31:08.825Z,5.30
2018-06-02T02:33:36.423Z,6.20
2018-06-02T02:36:04.039Z,6.00
2018-06-02T02:38:32.429Z,6.00
2018-06-02T02:41:00.025Z,6.03
2018-06-02T02:43:27.654Z,6.17
2018-06-02T02:45:55.279Z,5.80
2018-06-02T02:48:23.678Z,5.30
2018-06-02T02:50:51.301Z,5.50
2018-06-02T02:53:18.881Z,6.17
2018-06-02T02:55:47.308Z,5.30
2018-06-02T02:58:14.895Z,6.60
2018-06-02T03:00:42.536Z,6.00
2018-06-02T03:03:10.128Z,5.67
2018-06-02T03:05:37.755Z,5.83
2018-06-02T03:08:05.321Z,5.60
2018-06-02T03:10:32.945Z,5.83
2018-06-02T03:13:00.597Z,5.70
2018-06-02T03:15:28.185Z,6.47
2018-06-02T03:17:55.802Z,6.10
2018-06-02T03:20:23.479Z,7.70
2018-06-02T03:22:51.890Z,6.70
2018-06-02T03:25:19.485Z,6.50
2018-06-02T03:27:47.063Z,6.83
2018-06-02T03:30:14.653Z,6.63
2018-06-02T03:32:42.233Z,6.10
2018-06-02T03:35:09.855Z,6.50
2018-06-02T03:37:38.235Z,6.70
2018-06-02T03:40:06.602Z,6.00
2018-06-02T03:42:34.203Z,5.80
2018-06-02T03:45:01.789Z,5.80
2018-06-02T03:47:29.407Z,6.53
2018-06-02T03:49:57.004Z,6.07
2018-06-02T03:52:24.604Z,6.80
2018-06-02T03:54:52.245Z,6.33
2018-06-02T03:57:19.860Z,6.53
2018-06-02T03:59:47.477Z,6.77
2018-06-02T04:02:15.076Z,6.80
2018-06-02T04:04:43.447Z,6.50
2018-06-02T04:07:11.837Z,5.90
2018-06-02T04:09:39.479Z,7.40
2018-06-02T04:12:07.881Z,7.53
2018-06-02T04:14:36.308Z,6.87
2018-06-02T04:17:03.867Z,6.87
2018-06-02T04:19:31.504Z,7.47
2018-06-02T04:21:59.338Z,7.85
2018-06-02T04:24:27.695Z,7.20
2018-06-02T04:26:55.326Z,7.33
2018-06-02T04:29:22.924Z,7.30
2018-06-02T04:31:51.307Z,7.13
2018-06-02T04:34:19.661Z,7.00
2018-06-02T04:36:47.219Z,7.20
2018-06-02T04:39:14.839Z,7.67
2018-06-02T04:41:42.419Z,8.97
2018-06-02T04:44:10.067Z,8.43
2018-06-02T04:46:37.629Z,8.13
2018-06-02T04:49:05.220Z,8.43
2018-06-02T04:51:32.803Z,9.37
2018-06-02T04:54:01.339Z,8.07
2018-06-02T04:56:28.969Z,7.40
2018-06-02T04:58:56.584Z,8.60
2018-06-02T05:01:24.219Z,8.43
2018-06-02T05:03:51.793Z,7.10
2018-06-02T05:06:19.439Z,6.70
2018-06-02T05:08:47.079Z,6.20
2018-06-02T05:11:14.705Z,5.50
2018-06-02T05:13:42.274Z,5.23
2018-06-02T05:16:10.671Z,4.47
2018-06-02T05:18:38.283Z,6.65
2018-06-02T05:21:05.936Z,5.00
2018-06-02T05:23:33.584Z,5.00
2018-06-02T05:26:01.206Z,5.45
2018-06-02T05:28:29.614Z,5.70
2018-06-02T05:30:57.228Z,6.05
2018-06-02T05:33:24.954Z,5.60
2018-06-02T05:35:53.354Z,5.40
2018-06-02T05:38:20.966Z,5.40
2018-06-02T05:40:48.542Z,6.05
2018-06-02T05:43:16.207Z,5.95
2018-06-02T05:45:43.818Z,5.70
2018-06-02T05:48:12.222Z,8.20
2018-06-02T05:50:39.815Z,6.12
2018-06-02T05:53:07.433Z,6.82
2018-06-02T05:55:35.059Z,6.60
2018-06-02T05:58:02.683Z,6.12
2018-06-02T06:00:30.257Z,5.37
2018-06-02T06:02:57.885Z,6.15
2018-06-02T06:05:25.473Z,5.70
2018-06-02T06:07:53.093Z,4.57
2018-06-02T06:10:21.557Z,4.82
2018-06-02T06:12:49.211Z,6.00
2018-06-02T06:15:17.614Z,4.95
2018-06-02T06:17:45.973Z,6.43
2018-06-02T06:20:14.347Z,4.90
2018-06-02T06:22:41.906Z,5.25
2018-06-02T06:25:09.510Z,4.95
2018-06-02T06:27:37.070Z,4.10
2018-06-02T06:30:04.677Z,4.20
2018-06-02T06:32:32.292Z,3.92
2018-06-02T06:34:59.840Z,4.00
2018-06-02T06:37:28.192Z,5.05
2018-06-02T06:39:55.796Z,3.92
2018-06-02T06:42:23.429Z,3.67
2018-06-02T06:44:51.788Z,3.78
2018-06-02T06:47:19.398Z,4.10
2018-06-02T06:49:47.014Z,4.10
2018-06-02T06:52:15.098Z,3.57
2018-06-02T06:54:42.749Z,3.70
2018-06-02T06:57:11.130Z,3.57
2018-06-02T06:59:38.746Z,4.17
2018-06-02T07:02:06.362Z,3.47
2018-06-02T07:04:34.728Z,3.60
2018-06-02T07:07:02.346Z,3.60
2018-06-02T07:09:29.920Z,3.30
2018-06-02T07:11:57.544Z,4.80
2018-06-02T07:14:25.128Z,3.30
2018-06-02T07:16:52.732Z,3.50
2018-06-02T07:19:20.324Z,4.33
2018-06-02T07:21:47.936Z,3.43
2018-06-02T07:24:15.531Z,3.80
2018-06-02T07:26:43.964Z,3.67
2018-06-02T07:29:11.584Z,3.70
2018-06-02T07:31:39.996Z,3.57
2018-06-02T07:34:07.622Z,3.77
2018-06-02T07:36:35.986Z,3.70
2018-06-02T07:39:05.312Z,4.00
2018-06-02T07:41:32.918Z,3.87
2018-06-02T07:44:00.492Z,3.53
2018-06-02T07:46:28.088Z,3.63
2018-06-02T07:48:55.706Z,3.33
2018-06-02T07:51:23.343Z,3.50
2018-06-02T07:53:50.988Z,3.37
2018-06-02T07:56:18.590Z,3.20
2018-06-02T07:58:46.239Z,3.37
2018-06-02T08:01:13.872Z,3.30
2018-06-02T08:03:41.487Z,3.30
2018-06-02T08:06:09.891Z,2.90
2018-06-02T08:08:37.576Z,2.97
2018-06-02T08:11:05.183Z,3.43
2018-06-02T08:13:34.302Z,3.20
2018-06-02T08:16:02.665Z,3.20
2018-06-02T08:18:30.226Z,3.50
2018-06-02T08:20:57.820Z,3.40
2018-06-02T08:23:25.436Z,3.30
2018-06-02T08:25:53.006Z,3.60
2018-06-02T08:28:20.620Z,3.17
2018-06-02T08:30:48.186Z,2.80
2018-06-02T08:33:15.826Z,3.10
2018-06-02T08:35:43.442Z,2.67
2018-06-02T08:38:11.100Z,2.90
2018-06-02T08:40:38.712Z,2.97
2018-06-02T08:43:06.308Z,2.77
2018-06-02T08:45:33.950Z,3.10
2018-06-02T08:48:01.599Z,2.93
2018-06-02T08:50:29.242Z,2.70
2018-06-02T08:52:56.852Z,2.73
2018-06-02T08:55:24.484Z,3.17
2018-06-02T08:57:52.074Z,2.90
2018-06-02T09:00:19.705Z,2.67
2018-06-02T09:02:47.307Z,3.30
2018-06-02T09:05:14.966Z,2.80
2018-06-02T09:07:42.562Z,2.80
2018-06-02T09:10:10.995Z,2.40
2018-06-02T09:12:38.609Z,2.50
2018-06-02T09:15:06.225Z,2.50
2018-06-02T09:17:33.840Z,2.90
2018-06-02T09:20:01.632Z,3.00
2018-06-02T09:22:29.273Z,3.43
2018-06-02T09:24:56.868Z,2.73
2018-06-02T09:27:24.492Z,3.30
2018-06-02T09:29:52.054Z,2.63
2018-06-02T09:32:19.653Z,2.83
2018-06-02T09:34:47.276Z,2.70
2018-06-02T09:37:14.846Z,2.70
2018-06-02T09:39:42.481Z,2.67
2018-06-02T09:42:10.821Z,2.63
2018-06-02T09:44:38.438Z,2.57
2018-06-02T09:47:06.043Z,2.53
2018-06-02T09:49:33.660Z,2.90
2018-06-02T09:52:01.263Z,3.73
2018-06-02T09:54:28.868Z,2.70
2018-06-02T09:56:57.226Z,2.83
2018-06-02T09:59:25.611Z,5.07
2018-06-02T10:01:53.988Z,2.87
2018-06-02T10:04:22.353Z,2.40
2018-06-02T10:06:49.967Z,4.57
2018-06-02T10:09:17.548Z,2.13
2018-06-02T10:11:45.162Z,2.33
2018-06-02T10:14:12.799Z,3.17
2018-06-02T10:16:40.435Z,2.20
2018-06-02T10:19:08.059Z,2.83
2018-06-02T10:21:35.696Z,2.43
2018-06-02T10:24:03.256Z,2.30
2018-06-02T10:26:31.645Z,2.60
2018-06-02T10:28:59.269Z,2.80
2018-06-02T10:31:26.862Z,2.63
2018-06-02T10:33:55.222Z,2.43
2018-06-02T10:36:23.572Z,2.37
2018-06-02T10:38:51.167Z,2.50
2018-06-02T10:41:19.539Z,2.30
2018-06-02T10:43:47.923Z,2.20
2018-06-02T10:46:16.279Z,2.63
2018-06-02T10:48:43.880Z,2.00
2018-06-02T10:51:11.489Z,2.40
2018-06-02T10:53:39.032Z,2.30
2018-06-02T10:56:06.654Z,2.13
2018-06-02T10:58:35.028Z,2.53
2018-06-02T11:01:03.407Z,2.40
2018-06-02T11:03:31.788Z,2.30
2018-06-02T11:06:00.190Z,2.00
2018-06-02T11:08:27.798Z,2.13
2018-06-02T11:10:55.436Z,2.10
2018-06-02T11:13:23.077Z,2.40
2018-06-02T11:15:50.633Z,2.07
2018-06-02T11:18:18.217Z,1.90
2018-06-02T11:20:45.879Z,2.33
2018-06-02T11:23:13.519Z,2.33
2018-06-02T11:25:41.213Z,2.08
2018-06-02T11:28:08.847Z,2.30
2018-06-02T11:30:36.446Z,2.75
2018-06-02T11:33:04.060Z,4.03
2018-06-02T11:35:31.684Z,2.25
2018-06-02T11:38:00.072Z,1.92
2018-06-02T11:40:28.468Z,2.35
2018-06-02T11:42:56.091Z,2.33
2018-06-02T11:45:23.709Z,4.45
2018-06-02T11:47:51.343Z,2.20
2018-06-02T11:50:19.706Z,2.35
2018-06-02T11:52:47.298Z,2.30
2018-06-02T11:55:14.896Z,3.85
2018-06-02T11:57:42.522Z,2.37
2018-06-02T12:00:10.130Z,4.95
2018-06-02T12:02:37.771Z,2.22
2018-06-02T12:05:05.361Z,4.12
2018-06-02T12:07:32.965Z,2.33
2018-06-02T12:10:00.597Z,2.22
2018-06-02T12:12:28.985Z,2.50
2018-06-02T12:14:57.428Z,2.20
2018-06-02T12:17:25.033Z,2.47
2018-06-02T12:19:53.394Z,2.60
2018-06-02T12:22:20.998Z,2.30
2018-06-02T12:24:48.636Z,2.30
2018-06-02T12:27:16.256Z,2.37
2018-06-02T12:29:43.861Z,2.30
2018-06-02T12:32:11.481Z,2.35
2018-06-02T12:34:39.049Z,3.17
2018-06-02T12:37:06.627Z,2.05
2018-06-02T12:39:34.993Z,2.20
2018-06-02T12:42:02.563Z,2.10
2018-06-02T12:44:30.933Z,2.10
2018-06-02T12:46:58.523Z,2.17
2018-06-02T12:49:26.094Z,2.42
2018-06-02T12:51:53.708Z,2.40
2018-06-02T12:54:21.290Z,2.15
2018-06-02T12:56:49.671Z,2.10
2018-06-02T12:59:17.265Z,1.98
2018-06-02T13:01:44.866Z,3.37
2018-06-02T13:04:12.504Z,2.05
2018-06-02T13:06:40.139Z,2.15
2018-06-02T13:09:07.755Z,1.95
2018-06-02T13:11:35.344Z,3.70
2018-06-02T13:14:02.956Z,2.42
2018-06-02T13:16:30.600Z,2.35
2018-06-02T13:18:58.191Z,3.60
2018-06-02T13:21:25.801Z,2.50
2018-06-02T13:23:53.415Z,2.33
2018-06-02T13:26:21.038Z,2.33
2018-06-02T13:28:48.669Z,2.08
2018-06-02T13:31:16.263Z,2.17
2018-06-02T13:33:43.861Z,2.03
2018-06-02T13:36:12.233Z,2.20
2018-06-02T13:38:39.836Z,2.20
2018-06-02T13:41:07.435Z,2.00
2018-06-02T13:43:35.055Z,2.03
2018-06-02T13:46:02.681Z,2.17
2018-06-02T13:48:30.479Z,2.12
2018-06-02T13:50:58.057Z,2.00
2018-06-02T13:53:25.723Z,2.00
2018-06-02T13:55:53.319Z,2.28
2018-06-02T13:58:20.974Z,2.30
2018-06-02T14:00:48.603Z,1.90
2018-06-02T14:03:16.221Z,2.05
2018-06-02T14:05:43.810Z,1.98
2018-06-02T14:08:11.434Z,2.00
2018-06-02T14:10:39.058Z,1.80
2018-06-02T14:13:06.674Z,2.08
2018-06-02T14:15:35.024Z,2.10
2018-06-02T14:18:02.628Z,2.47
2018-06-02T14:20:30.261Z,1.98
2018-06-02T14:22:57.871Z,1.98
2018-06-02T14:25:25.487Z,2.20
2018-06-02T14:27:53.083Z,2.10
2018-06-02T14:30:20.664Z,2.08
2018-06-02T14:32:48.323Z,1.83
2018-06-02T14:35:15.946Z,2.10
2018-06-02T14:37:44.319Z,1.90
2018-06-02T14:40:12.698Z,2.17
2018-06-02T14:42:41.046Z,1.92
2018-06-02T14:45:08.707Z,2.05
2018-06-02T14:47:36.307Z,1.80
2018-06-02T14:50:04.672Z,2.00
2018-06-02T14:52:33.068Z,1.90
2018-06-02T14:55:00.684Z,1.90
2018-06-02T14:57:28.334Z,1.90
2018-06-02T14:59:55.952Z,2.05
2018-06-02T15:02:23.581Z,2.05
2018-06-02T15:04:51.193Z,2.05
2018-06-02T15:07:18.766Z,1.90
2018-06-02T15:09:46.379Z,1.90
2018-06-02T15:12:14.759Z,1.92
2018-06-02T15:14:43.129Z,1.87
2018-06-02T15:17:11.519Z,2.00
2018-06-02T15:19:39.121Z,1.77
2018-06-02T15:22:06.716Z,1.67
2018-06-02T15:24:34.333Z,1.90
2018-06-02T15:27:01.925Z,2.10
2018-06-02T15:29:29.526Z,2.10
2018-06-02T15:31:57.857Z,2.20
2018-06-02T15:34:25.424Z,2.00
2018-06-02T15:36:53.057Z,2.15
2018-06-02T15:39:20.658Z,2.17
2018-06-02T15:41:48.280Z,1.90
2018-06-02T15:44:15.873Z,2.25
2018-06-02T15:46:43.499Z,2.45
2018-06-02T15:49:11.093Z,2.20
2018-06-02T15:51:38.687Z,2.35
2018-06-02T15:54:07.061Z,2.83
2018-06-02T15:56:35.441Z,2.67
2018-06-02T15:59:07.638Z,2.80
2018-06-02T16:01:35.261Z,2.60
2018-06-02T16:04:02.854Z,3.17
2018-06-02T16:06:30.469Z,2.78
2018-06-02T16:08:58.203Z,2.53
2018-06-02T16:11:25.801Z,2.37
2018-06-02T16:13:53.445Z,2.43
2018-06-02T16:16:21.081Z,2.80
2018-06-02T16:18:48.711Z,2.90
2018-06-02T16:21:16.328Z,2.73
2018-06-02T16:23:43.907Z,2.50
2018-06-02T16:26:13.270Z,2.50
2018-06-02T16:28:40.842Z,2.60
2018-06-02T16:31:08.469Z,2.53
2018-06-02T16:33:36.097Z,2.77
2018-06-02T16:36:04.463Z,2.67
2018-06-02T16:38:32.149Z,2.90
2018-06-02T16:41:00.573Z,2.43
2018-06-02T16:43:28.201Z,2.67
2018-06-02T16:45:55.778Z,3.07
2018-06-02T16:48:23.401Z,2.80
2018-06-02T16:50:53.032Z,2.70
2018-06-02T16:53:21.275Z,2.40
2018-06-02T16:55:48.877Z,2.40
2018-06-02T16:58:16.559Z,2.50
2018-06-02T17:00:44.153Z,2.40
2018-06-02T17:03:11.783Z,2.30
2018-06-02T17:05:39.406Z,2.80
2018-06-02T17:08:07.037Z,2.57
2018-06-02T17:10:34.676Z,2.43
2018-06-02T17:13:02.313Z,2.50
2018-06-02T17:15:29.895Z,2.70
2018-06-02T17:17:57.512Z,2.30
2018-06-02T17:20:25.924Z,2.30
2018-06-02T17:22:53.542Z,2.50
2018-06-02T17:25:21.968Z,2.47
2018-06-02T17:27:49.608Z,2.33
2018-06-02T17:30:17.215Z,2.43
2018-06-02T17:32:44.803Z,2.47
2018-06-02T17:35:13.329Z,2.50
2018-06-02T17:37:40.946Z,2.40
2018-06-02T17:40:08.588Z,2.50
2018-06-02T17:42:36.264Z,2.43
2018-06-02T17:45:03.881Z,2.30
2018-06-02T17:47:31.467Z,2.40
2018-06-02T17:49:59.079Z,2.70
2018-06-02T17:52:26.665Z,2.47
2018-06-02T17:54:54.249Z,2.30
2018-06-02T17:57:21.886Z,2.50
2018-06-02T17:59:49.487Z,2.57
2018-06-02T18:02:17.091Z,2.40
2018-06-02T18:04:44.695Z,2.30
2018-06-02T18:07:12.323Z,2.40
2018-06-02T18:09:39.947Z,2.30
2018-06-02T18:12:08.323Z,2.60
2018-06-02T18:14:36.750Z,2.60
2018-06-02T18:17:04.347Z,2.20
2018-06-02T18:19:31.931Z,2.53
2018-06-02T18:21:59.557Z,2.40
2018-06-02T18:24:27.163Z,2.20
2018-06-02T18:26:54.741Z,2.13
2018-06-02T18:29:22.335Z,2.23
2018-06-02T18:31:49.946Z,2.17
2018-06-02T18:34:17.587Z,2.57
2018-06-02T18:36:45.958Z,2.67
2018-06-02T18:39:14.327Z,2.60
2018-06-02T18:41:41.978Z,2.40
2018-06-02T18:44:09.577Z,2.40
2018-06-02T18:46:37.941Z,2.53
2018-06-02T18:49:06.311Z,2.10
2018-06-02T18:51:33.953Z,2.33
2018-06-02T18:54:02.321Z,2.27
2018-06-02T18:56:29.947Z,2.70
2018-06-02T18:58:57.565Z,2.20
2018-06-02T19:01:25.177Z,2.30
2018-06-02T19:03:54.016Z,2.60
2018-06-02T19:06:21.643Z,2.30
2018-06-02T19:08:49.281Z,2.33
2018-06-02T19:11:16.965Z,2.47
2018-06-02T19:13:44.585Z,2.50
2018-06-02T19:16:12.980Z,2.30
2018-06-02T19:18:40.593Z,2.30
2018-06-02T19:21:08.965Z,2.57
2018-06-02T19:23:38.098Z,2.40
2018-06-02T19:26:05.736Z,2.63
2018-06-02T19:28:33.356Z,2.60
2018-06-02T19:31:00.963Z,2.60
2018-06-02T19:33:29.376Z,2.43
2018-06-02T19:35:56.961Z,2.60
2018-06-02T19:38:24.540Z,2.30
2018-06-02T19:40:52.181Z,2.40
2018-06-02T19:43:19.788Z,3.40
2018-06-02T19:45:47.401Z,3.77
2018-06-02T19:48:15.018Z,3.40
2018-06-02T19:50:42.574Z,3.00
2018-06-02T19:53:10.940Z,2.60
2018-06-02T19:55:38.562Z,2.60
2018-06-02T19:58:06.156Z,3.33
2018-06-02T20:04:04.624Z,2.90
2018-06-02T20:06:32.233Z,3.00
2018-06-02T20:08:59.816Z,3.20
2018-06-02T20:11:28.244Z,3.00
2018-06-02T20:13:55.862Z,3.10
2018-06-02T20:16:23.542Z,3.50
2018-06-02T20:18:51.162Z,3.60
2018-06-02T20:21:19.544Z,3.30
2018-06-02T20:23:47.884Z,3.13
2018-06-02T20:26:16.121Z,2.87
2018-06-02T20:28:43.720Z,2.73
2018-06-02T20:31:11.322Z,2.80
2018-06-02T20:33:39.848Z,2.70
2018-06-02T20:36:07.516Z,2.77
2018-06-02T20:38:35.082Z,2.70
2018-06-02T20:41:02.710Z,3.10
2018-06-02T20:43:30.518Z,3.20
2018-06-02T20:45:58.224Z,3.20
2018-06-02T20:48:25.925Z,2.80
2018-06-02T20:50:53.542Z,2.60
2018-06-02T20:53:21.911Z,2.70
2018-06-02T20:55:49.544Z,3.07
2018-06-02T20:58:17.158Z,3.00
2018-06-02T21:00:44.764Z,2.80
2018-06-02T21:03:12.386Z,3.03
2018-06-02T21:05:39.983Z,3.30
2018-06-02T21:08:07.608Z,3.30
2018-06-02T21:10:35.248Z,3.60
2018-06-02T21:13:03.593Z,3.30
2018-06-02T21:15:31.231Z,3.20
2018-06-02T21:17:58.872Z,3.60
2018-06-02T21:20:26.456Z,3.20
2018-06-02T21:22:54.003Z,3.07
2018-06-02T21:25:21.594Z,3.37
2018-06-02T21:27:49.180Z,3.03
2018-06-02T21:30:16.866Z,2.77
2018-06-02T21:32:44.487Z,3.17
2018-06-02T21:35:12.068Z,3.43
2018-06-02T21:37:40.432Z,3.23
2018-06-02T21:40:08.813Z,3.70
2018-06-02T21:42:36.416Z,3.33
2018-06-02T21:45:04.054Z,3.60
2018-06-02T21:47:32.420Z,3.73
2018-06-02T21:50:00.040Z,3.80
2018-06-02T21:52:29.580Z,3.97
2018-06-02T21:54:57.208Z,3.50
2018-06-02T21:57:24.826Z,3.87
2018-06-02T21:59:52.423Z,3.50
2018-06-02T22:02:20.029Z,3.73
2018-06-02T22:04:47.648Z,3.77
2018-06-02T22:07:15.260Z,3.60
2018-06-02T22:09:43.643Z,3.63
2018-06-02T22:12:12.045Z,3.67
2018-06-02T22:14:39.633Z,3.85
2018-06-02T22:17:07.235Z,3.47
2018-06-02T22:19:35.593Z,3.77
2018-06-02T22:22:03.211Z,4.23
2018-06-02T22:24:30.817Z,3.47
2018-06-02T22:26:58.432Z,3.87
2018-06-02T22:29:26.062Z,4.00
2018-06-02T22:31:54.448Z,4.30
2018-06-02T22:34:22.058Z,3.67
2018-06-02T22:36:49.645Z,4.10
2018-06-02T22:39:18.009Z,4.00
2018-06-02T22:41:45.658Z,3.37
2018-06-02T22:44:13.239Z,3.90
2018-06-02T22:46:40.864Z,4.57
2018-06-02T22:49:08.482Z,4.20
2018-06-02T22:51:47.951Z,4.40
2018-06-02T22:54:15.525Z,4.50
2018-06-02T22:56:43.145Z,4.10
2018-06-02T22:59:11.552Z,4.13
2018-06-02T23:01:39.194Z,4.00
2018-06-02T23:04:07.589Z,4.30
2018-06-02T23:06:35.274Z,4.22
2018-06-02T23:09:02.864Z,4.67
2018-06-02T23:11:30.484Z,5.10
2018-06-02T23:13:58.098Z,5.03
2018-06-02T23:16:26.490Z,4.93
2018-06-02T23:18:54.836Z,5.20
2018-06-02T23:21:22.452Z,5.20
2018-06-02T23:23:50.047Z,5.57
2018-06-02T23:26:17.686Z,5.57
2018-06-02T23:28:45.274Z,5.80
2018-06-02T23:31:12.914Z,5.67
2018-06-02T23:33:40.558Z,5.40
2018-06-02T23:36:08.165Z,5.87
2018-06-02T23:38:35.743Z,5.40
2018-06-02T23:41:04.114Z,5.90
2018-06-02T23:43:32.548Z,5.83
2018-06-02T23:46:00.154Z,5.70
2018-06-02T23:48:27.744Z,5.67
2018-06-02T23:50:56.140Z,5.40
2018-06-02T23:53:23.752Z,5.70
2018-06-02T23:55:51.400Z,5.57
2018-06-02T23:58:19.030Z,6.10
